Time;durP1;ratioP1;P1;durP2;ratioP2;P2;SDS_P1;SDS_P2;PMS_P1;PMS_P2;Temp;Humidity;BMP_temperature;BMP_pressure;BME280_temperature;BME280_humidity;BME280_pressure;Samples;Min_cycle;Max_cycle;Signal;HPM_P1;HPM_P2
2023/02/20 00:00:47;;;;;;;2.95;1.15;;;;;;;-146.25;93.73;52416.84;2078954;28;32443;-73
2023/02/20 00:01:54;;;;;;;4.18;1.65;;;;;;;-146.25;93.74;52455.38;2078817;28;35320;-73
2023/02/20 00:02:56;;;;;;;5.30;1.58;;;;;;;-146.25;94.49;52420.91;2080068;28;34620;-73
2023/02/20 00:04:00;;;;;;;3.72;2.03;;;;;;;-146.25;94.04;52418.88;2080244;28;20037;-72
2023/02/20 00:05:02;;;;;;;5.43;1.75;;;;;;;-146.25;94.89;52445.25;2079417;28;36661;-73
2023/02/20 00:06:04;;;;;;;3.25;1.92;;;;;;;-146.25;94.36;52418.88;2079373;28;34149;-73
2023/02/20 00:07:06;;;;;;;5.03;2.10;;;;;;;-146.25;94.67;52420.91;2079247;28;34723;-72
2023/02/20 00:08:07;;;;;;;5.55;2.08;;;;;;;-146.25;94.87;52451.31;2079764;28;36178;-73
2023/02/20 00:09:09;;;;;;;6.15;2.05;;;;;;;-146.25;94.72;52437.13;2080447;28;20345;-73
2023/02/20 00:10:11;;;;;;;3.35;1.90;;;;;;;-146.25;94.63;52457.41;2079758;28;36064;-73
2023/02/20 00:11:13;;;;;;;4.82;2.47;;;;;;;-146.25;94.13;52441.19;2078787;28;31895;-73
2023/02/20 00:12:17;;;;;;;4.03;2.00;;;;;;;-146.25;94.08;52461.47;2078716;28;36327;-73
2023/02/20 00:13:21;;;;;;;4.13;2.17;;;;;;;-146.25;94.49;52412.81;2079287;28;34312;-73
2023/02/20 00:14:23;;;;;;;5.28;2.55;;;;;;;-146.25;94.77;52437.13;2079588;28;30047;-72
2023/02/20 00:15:25;;;;;;;4.43;2.40;;;;;;;-146.25;94.26;52469.56;2079566;28;34439;-73
2023/02/20 00:16:26;;;;;;;4.82;2.40;;;;;;;-146.25;94.24;52437.13;2079849;28;34134;-72
2023/02/20 00:17:28;;;;;;;3.33;2.40;;;;;;;-146.25;94.84;52424.97;2077928;28;37586;-73
2023/02/20 00:18:30;;;;;;;5.13;2.20;;;;;;;-146.25;94.86;52431.06;2071601;28;35559;-73
2023/02/20 00:19:31;;;;;;;5.47;2.30;;;;;;;-146.25;94.73;52422.94;2071413;28;36823;-73
2023/02/20 00:20:36;;;;;;;7.38;2.97;;;;;;;-146.25;94.64;52431.06;2071245;28;35974;-73
2023/02/20 00:21:46;;;;;;;5.82;2.60;;;;;;;-146.25;94.84;52449.31;2070830;28;32832;-73
2023/02/20 00:22:48;;;;;;;4.60;2.45;;;;;;;-146.25;94.94;52457.41;2070629;28;36517;-72
2023/02/20 00:23:50;;;;;;;4.18;2.30;;;;;;;-146.25;94.43;52495.94;2071556;28;20108;-73
2023/02/20 00:24:52;;;;;;;3.58;2.60;;;;;;;-146.25;94.97;52455.38;2071824;28;34792;-73
2023/02/20 00:25:54;;;;;;;5.45;2.58;;;;;;;-146.25;95.21;52429.03;2070665;28;37128;-71
2023/02/20 00:26:55;;;;;;;5.80;2.90;;;;;;;-146.25;94.59;52420.91;2071615;28;33929;-71
2023/02/20 00:27:57;;;;;;;4.13;2.53;;;;;;;-146.25;95.15;52429.03;2071418;28;20765;-71
2023/02/20 00:28:59;;;;;;;6.57;2.97;;;;;;;-146.25;95.21;52433.06;2071225;28;32815;-71
2023/02/20 00:30:01;;;;;;;3.78;2.45;;;;;;;-146.25;95.00;52433.06;2071506;28;25694;-71
2023/02/20 00:31:04;;;;;;;4.35;3.00;;;;;;;-146.25;95.16;52477.69;2070888;28;26880;-72
2023/02/20 00:32:05;;;;;;;5.57;3.10;;;;;;;-146.25;94.54;52465.53;2070715;28;30799;-71
2023/02/20 00:33:07;;;;;;;3.95;3.03;;;;;;;-146.25;95.38;52418.88;2062694;28;23063;-71
2023/02/20 00:34:09;;;;;;;6.75;3.30;;;;;;;-146.25;95.07;52433.06;2062430;28;35753;-73
2023/02/20 00:35:11;;;;;;;5.30;3.05;;;;;;;-146.25;95.56;52439.16;2071555;28;30827;-71
2023/02/20 00:36:16;;;;;;;5.72;3.05;;;;;;;-146.25;94.92;52398.59;2062787;28;21050;-72
2023/02/20 00:37:18;;;;;;;4.63;2.85;;;;;;;-146.25;95.29;52469.56;2063430;28;20043;-73
2023/02/20 00:38:20;;;;;;;5.03;3.47;;;;;;;-146.25;95.62;52408.75;2071200;28;20054;-73
2023/02/20 00:39:22;;;;;;;6.20;3.75;;;;;;;-146.25;95.26;52414.84;2071360;28;39625;-72
2023/02/20 00:40:24;;;;;;;4.20;2.90;;;;;;;-146.25;95.77;52408.75;2070700;28;24678;-73
2023/02/20 00:41:26;;;;;;;4.55;3.45;;;;;;;-146.25;95.80;52461.47;2070757;28;23103;-73
2023/02/20 00:42:28;;;;;;;5.90;3.72;;;;;;;-146.25;95.08;52447.28;2070474;28;31744;-72
2023/02/20 00:43:30;;;;;;;4.30;3.08;;;;;;;-146.25;95.61;52441.19;2071393;28;26296;-73
2023/02/20 00:44:32;;;;;;;5.25;3.30;;;;;;;-146.25;95.89;52420.91;2071913;28;21193;-72
2023/02/20 00:45:33;;;;;;;7.00;3.47;;;;;;;-146.25;95.86;52433.06;2072899;28;27083;-71
2023/02/20 00:46:35;;;;;;;6.88;3.60;;;;;;;-146.25;95.56;52449.31;2073318;28;28466;-71
2023/02/20 00:47:40;;;;;;;5.95;3.35;;;;;;;-146.25;95.52;52441.19;2073306;28;20242;-72
2023/02/20 00:48:42;;;;;;;5.25;3.20;;;;;;;-146.25;96.00;52439.16;2071681;28;34730;-71
2023/02/20 00:50:05;;;;;;;5.78;3.13;;;;;;;-146.25;95.86;52435.09;2073021;28;20934;-71
2023/02/20 00:51:06;;;;;;;4.30;3.08;;;;;;;-146.25;96.18;52433.06;2073082;28;20752;-71
2023/02/20 00:52:08;;;;;;;6.25;3.55;;;;;;;-146.25;95.38;52429.03;2071918;28;29787;-71
2023/02/20 00:53:10;;;;;;;5.43;3.38;;;;;;;-146.25;95.61;52429.03;2072674;28;20149;-70
2023/02/20 00:54:12;;;;;;;6.55;3.40;;;;;;;-146.25;95.39;52429.03;2072059;28;30864;-71
2023/02/20 00:55:14;;;;;;;4.68;3.35;;;;;;;-146.25;96.16;52416.84;2071744;28;22141;-71
2023/02/20 00:56:16;;;;;;;4.30;3.08;;;;;;;-146.25;95.60;52447.28;2072347;28;31895;-71
2023/02/20 00:57:20;;;;;;;5.13;3.28;;;;;;;-146.25;95.89;52414.84;2071849;28;27537;-71
2023/02/20 00:58:21;;;;;;;5.90;3.65;;;;;;;-146.25;96.06;52412.81;2072160;28;25985;-71
2023/02/20 00:59:24;;;;;;;7.57;3.70;;;;;;;-146.25;95.75;52429.03;2073040;28;20038;-72
2023/02/20 01:00:30;;;;;;;4.90;3.28;;;;;;;-146.25;95.67;52424.97;2072837;28;32041;-72
2023/02/20 01:01:32;;;;;;;5.03;3.15;;;;;;;-146.25;95.50;52406.72;2064199;28;20176;-72
2023/02/20 01:02:37;;;;;;;4.82;3.50;;;;;;;-146.25;95.81;52429.03;2063959;28;27688;-72
2023/02/20 01:03:38;;;;;;;5.82;3.38;;;;;;;-146.25;95.96;52427.00;2073029;28;20887;-72
2023/02/20 01:04:41;;;;;;;5.72;3.25;;;;;;;-146.25;95.77;52394.56;2072559;28;28557;-71
2023/02/20 01:05:43;;;;;;;4.53;3.15;;;;;;;-146.25;95.84;52406.72;2072609;28;20043;-72
2023/02/20 01:06:45;;;;;;;4.78;2.92;;;;;;;-146.25;95.87;52398.59;2073018;28;20797;-72
2023/02/20 01:07:49;;;;;;;4.35;3.03;;;;;;;-146.25;95.68;52463.50;2072772;28;26376;-72
2023/02/20 01:08:51;;;;;;;4.85;3.55;;;;;;;-146.25;96.58;52437.13;2072749;28;28590;-72
2023/02/20 01:09:54;;;;;;;6.45;3.38;;;;;;;-146.25;96.02;52414.84;2073260;28;20786;-72
2023/02/20 01:10:56;;;;;;;7.03;3.13;;;;;;;-146.25;95.92;52453.34;2072491;28;25113;-72
2023/02/20 01:11:58;;;;;;;4.07;3.03;;;;;;;-146.25;96.13;52414.84;2071587;28;28570;-71
2023/02/20 01:12:59;;;;;;;5.18;3.38;;;;;;;-146.25;95.96;52447.28;2071553;28;24391;-72
2023/02/20 01:14:01;;;;;;;5.07;3.17;;;;;;;-146.25;96.48;52469.56;2072623;28;28320;-72
2023/02/20 01:15:06;;;;;;;4.72;3.20;;;;;;;-146.25;95.83;52420.91;2064097;28;20059;-71
2023/02/20 01:16:09;;;;;;;5.40;3.25;;;;;;;-146.25;96.23;52477.69;2056400;28;20055;-72
2023/02/20 01:17:13;;;;;;;5.47;3.47;;;;;;;-146.25;96.23;52439.16;2064168;28;34109;-72
2023/02/20 01:18:14;;;;;;;5.78;3.88;;;;;;;-146.25;95.93;52437.13;2071300;28;32035;-72
2023/02/20 01:19:18;;;;;;;5.13;3.60;;;;;;;-146.25;95.76;52384.41;2072006;28;30361;-71
2023/02/20 01:20:20;;;;;;;6.93;3.50;;;;;;;-146.25;96.11;52420.91;2071615;28;30337;-73
2023/02/20 01:21:21;;;;;;;7.18;3.45;;;;;;;-146.25;95.80;52418.88;2072889;28;24777;-71
2023/02/20 01:22:23;;;;;;;5.40;3.45;;;;;;;-146.25;96.51;52435.09;2072309;28;27407;-71
2023/02/20 01:23:25;;;;;;;5.75;3.15;;;;;;;-146.25;96.42;52429.03;2072803;28;21027;-70
2023/02/20 01:24:27;;;;;;;5.28;3.72;;;;;;;-146.25;96.20;52420.91;2073139;28;20121;-71
2023/02/20 01:25:29;;;;;;;6.53;3.83;;;;;;;-146.25;95.76;52422.94;2063881;28;22423;-71
2023/02/20 01:26:31;;;;;;;4.88;3.50;;;;;;;-146.25;96.72;52386.44;2055416;28;33623;-72
2023/02/20 01:27:32;;;;;;;6.38;3.65;;;;;;;-146.25;96.36;52412.81;2055752;28;30005;-73
2023/02/20 01:28:34;;;;;;;5.93;3.53;;;;;;;-146.25;96.03;52424.97;2063618;28;23311;-72
2023/02/20 01:29:40;;;;;;;5.78;4.20;;;;;;;-146.25;96.51;52441.19;2072626;28;20038;-72
2023/02/20 01:30:41;;;;;;;5.22;3.58;;;;;;;-146.25;95.87;52420.91;2071766;28;32155;-72
2023/02/20 01:31:49;;;;;;;4.20;3.35;;;;;;;-146.25;96.29;52424.97;2072099;28;33778;-72
2023/02/20 01:32:51;;;;;;;4.30;3.40;;;;;;;-146.25;96.69;52433.06;2072453;28;24604;-72
2023/02/20 01:33:52;;;;;;;5.32;3.83;;;;;;;-146.25;96.41;52449.31;2071635;28;33741;-72
2023/02/20 01:34:54;;;;;;;5.82;3.67;;;;;;;-146.25;96.10;52437.13;2063497;28;22664;-71
2023/02/20 01:35:56;;;;;;;6.22;4.07;;;;;;;-146.25;96.40;52461.47;2064131;28;25191;-71
2023/02/20 01:36:58;;;;;;;7.15;3.90;;;;;;;-146.25;95.99;52410.78;2072458;28;27262;-72
2023/02/20 01:38:05;;;;;;;8.05;3.83;;;;;;;-146.25;95.88;52441.19;2064049;28;20089;-71
2023/02/20 01:39:07;;;;;;;6.50;4.20;;;;;;;-146.25;95.64;52451.31;2064356;28;32727;-71
2023/02/20 01:40:20;;;;;;;7.38;4.10;;;;;;;-146.25;95.23;52455.38;2071876;28;23841;-73
2023/02/20 01:41:24;;;;;;;12.55;4.05;;;;;;;-146.25;96.00;52424.97;2072368;28;20600;-73
2023/02/20 01:42:31;;;;;;;6.38;3.80;;;;;;;-146.25;95.90;52455.38;2063918;28;20046;-73
2023/02/20 01:43:33;;;;;;;5.50;3.60;;;;;;;-146.25;95.68;52402.66;2047849;28;29058;-73
2023/02/20 01:44:36;;;;;;;7.95;4.45;;;;;;;-146.25;95.92;52400.63;2056487;28;28315;-73
2023/02/20 01:45:39;;;;;;;7.65;4.15;;;;;;;-146.25;95.20;52449.31;2072295;28;30864;-72
2023/02/20 01:46:46;;;;;;;8.38;4.13;;;;;;;-146.25;95.41;52443.22;2072615;28;29731;-73
2023/02/20 01:47:57;;;;;;;7.13;4.40;;;;;;;-146.25;95.71;52469.56;2063225;28;34686;-72
2023/02/20 01:49:05;;;;;;;;;;;;;;;-146.25;95.22;52429.03;2065298;28;26933;-72
2023/02/20 01:50:09;;;;;;;5.30;3.88;;;;;;;-146.25;96.02;52392.53;2072164;28;31014;-72
2023/02/20 01:51:10;;;;;;;7.28;4.47;;;;;;;-146.25;95.21;52435.09;2071627;28;27998;-73
2023/02/20 01:52:34;;;;;;;7.90;4.25;;;;;;;-146.25;95.56;52412.81;2071886;28;30101;-73
2023/02/20 01:53:36;;;;;;;7.93;4.53;;;;;;;-146.25;95.35;52437.13;2072617;28;31944;-73
2023/02/20 01:54:42;;;;;;;7.18;4.18;;;;;;;-146.25;95.23;52420.91;2072738;28;24359;-73
2023/02/20 01:56:07;;;;;;;6.15;4.32;;;;;;;-146.25;95.91;52459.44;2071679;28;20049;-73
2023/02/20 01:57:17;;;;;;;7.55;4.45;;;;;;;-146.25;95.91;52465.53;2072309;28;20242;-73
2023/02/20 01:58:44;;;;;;;6.28;4.82;;;;;;;-146.25;96.20;52439.16;2070772;28;20043;-73
2023/02/20 01:59:48;;;;;;;5.75;4.25;;;;;;;-146.25;95.96;52404.69;2072115;28;20049;-73
2023/02/20 02:00:50;;;;;;;6.82;4.55;;;;;;;-146.25;95.03;52412.81;2072278;28;20976;-71
2023/02/20 02:01:52;;;;;;;5.80;4.20;;;;;;;-146.25;95.50;52457.41;2072152;28;27844;-71
2023/02/20 02:03:10;;;;;;;7.32;4.93;;;;;;;-146.25;95.18;52439.16;2063370;28;28343;-71
2023/02/20 02:04:13;;;;;;;5.35;4.53;;;;;;;-146.25;94.98;52453.34;2065989;28;31843;-71
2023/02/20 02:05:16;;;;;;;6.10;4.32;;;;;;;-146.25;95.55;52457.41;2072561;28;23999;-71
2023/02/20 02:06:18;;;;;;;9.73;5.38;;;;;;;-146.25;95.33;52420.91;2072102;28;20912;-73
2023/02/20 02:07:20;;;;;;;6.90;4.65;;;;;;;-146.25;94.75;52461.47;2071647;28;33314;-71
2023/02/20 02:08:26;;;;;;;8.80;5.05;;;;;;;-146.25;95.52;52433.06;2072133;28;28364;-73
2023/02/20 02:09:37;;;;;;;9.32;5.13;;;;;;;-146.25;94.74;52429.03;2072951;28;20429;-71
2023/02/20 02:11:09;;;;;;;10.13;4.75;;;;;;;-146.25;94.86;52453.34;2071436;28;24393;-71
2023/02/20 02:12:11;;;;;;;7.25;4.63;;;;;;;-146.25;94.72;52420.91;2072165;28;20056;-71
2023/02/20 02:13:13;;;;;;;6.95;4.88;;;;;;;-146.25;95.16;52418.88;2071612;28;20841;-71
2023/02/20 02:14:15;;;;;;;6.80;4.85;;;;;;;-146.25;94.79;52457.41;2071933;28;20408;-71
2023/02/20 02:15:20;;;;;;;9.52;5.15;;;;;;;-146.25;95.39;52471.59;2071752;28;32335;-72
2023/02/20 02:16:45;;;;;;;7.28;5.03;;;;;;;-146.25;95.29;52427.00;2071821;28;30244;-72
2023/02/20 02:18:29;;;;;;;9.43;5.22;;;;;;;-146.25;95.23;52396.59;2069815;28;20034;-73
2023/02/20 02:19:50;;;;;;;7.57;4.95;;;;;;;-146.25;94.69;52412.81;2064084;28;36411;-73
2023/02/20 02:21:49;;;;;;;8.50;5.72;;;;;;;-146.25;94.84;52479.72;2064510;28;32862;-73
2023/02/20 02:23:38;;;;;;;9.63;5.18;;;;;;;-146.25;94.51;52400.63;2063532;28;27226;-73
2023/02/20 02:25:05;;;;;;;10.75;4.95;;;;;;;-146.25;95.04;52414.84;2063440;28;34143;-73
2023/02/20 02:26:40;;;;;;;9.43;5.78;;;;;;;-146.25;95.18;52443.22;2064048;28;20043;-73
2023/02/20 02:28:07;;;;;;;9.00;5.88;;;;;;;-146.25;95.11;52435.09;2064399;28;20050;-72
2023/02/20 02:29:35;;;;;;;7.97;5.30;;;;;;;-146.25;94.95;52422.94;2064368;28;20776;-72
2023/02/20 02:31:26;;;;;;;8.38;5.13;;;;;;;-146.25;94.82;52429.03;2068432;28;27905;-73
2023/02/20 02:33:19;;;;;;;8.35;5.55;;;;;;;-146.25;94.58;52400.63;2063279;28;32409;-73
2023/02/20 02:34:53;;;;;;;7.57;5.45;;;;;;;-146.25;94.62;52427.00;2066567;28;23747;-73
2023/02/20 02:36:08;;;;;;;7.63;5.70;;;;;;;-146.25;94.95;52439.16;2047574;28;20047;-72
2023/02/20 02:37:33;;;;;;;7.90;5.80;;;;;;;-146.25;94.62;52429.03;2064438;28;39202;-73
2023/02/20 02:38:56;;;;;;;9.07;5.63;;;;;;;-146.25;94.67;52424.97;2071529;28;34821;-73
2023/02/20 02:40:34;;;;;;;11.55;5.78;;;;;;;-146.25;94.42;52439.16;2071761;28;33722;-73
2023/02/20 02:41:44;;;;;;;7.07;5.28;;;;;;;-146.25;94.67;52451.31;2072397;28;26878;-73
2023/02/20 02:43:16;;;;;;;;;;;;;;;-146.25;94.93;52441.19;2071949;28;27480;-73
2023/02/20 02:45:02;;;;;;;10.82;5.72;;;;;;;-146.25;94.62;52451.31;2065687;28;23280;-73
2023/02/20 02:46:15;;;;;;;8.48;5.57;;;;;;;-146.25;94.74;52400.63;2071285;28;20038;-73
2023/02/20 02:47:47;;;;;;;10.02;5.90;;;;;;;-146.25;94.51;52414.84;2055252;28;31958;-73
2023/02/20 02:49:00;;;;;;;10.38;6.10;;;;;;;-146.25;94.94;52437.13;2061232;28;20050;-73
2023/02/20 02:50:11;;;;;;;8.57;6.10;;;;;;;-146.25;95.06;52420.91;2063484;28;30472;-72
2023/02/20 02:51:20;;;;;;;10.27;6.90;;;;;;;-146.25;95.56;52439.16;2055783;28;20075;-73
2023/02/20 02:52:45;;;;;;;9.95;6.72;;;;;;;-146.25;95.22;52433.06;2063946;28;28354;-72
2023/02/20 02:54:27;;;;;;;10.98;6.30;;;;;;;-146.25;94.69;52459.44;2063767;28;23990;-73
2023/02/20 02:55:34;;;;;;;11.35;6.35;;;;;;;-146.25;95.10;52489.84;2063314;28;20335;-72
2023/02/20 02:56:48;;;;;;;10.45;7.00;;;;;;;-146.25;94.54;52424.97;2063973;28;20043;-72
2023/02/20 02:57:50;;;;;;;9.95;6.43;;;;;;;-146.25;95.02;52461.47;2063528;28;31283;-72
2023/02/20 02:58:53;;;;;;;9.45;6.40;;;;;;;-146.25;94.27;52447.28;2064146;28;21439;-72
2023/02/20 03:00:14;;;;;;;9.65;6.40;;;;;;;-146.25;94.70;52469.56;2063218;28;24750;-72
2023/02/20 03:01:19;;;;;;;12.55;6.97;;;;;;;-146.25;94.23;52414.84;2071425;28;33454;-73
2023/02/20 03:02:31;;;;;;;10.35;6.72;;;;;;;-146.25;93.74;52449.31;2063366;28;20911;-72
2023/02/20 03:03:39;;;;;;;9.77;6.75;;;;;;;-146.25;94.38;52429.03;2071751;28;20046;-73
2023/02/20 03:04:49;;;;;;;12.02;6.65;;;;;;;-146.25;93.56;52427.00;2071590;28;20049;-72
2023/02/20 03:06:08;;;;;;;10.38;7.07;;;;;;;-146.25;93.72;52453.34;2072149;28;20042;-72
2023/02/20 03:07:15;;;;;;;11.57;7.18;;;;;;;-146.25;93.95;52429.03;2071204;28;27365;-72
2023/02/20 03:08:34;;;;;;;10.05;7.50;;;;;;;-146.25;94.08;52451.31;2071154;28;20039;-73
2023/02/20 03:09:45;;;;;;;10.60;6.75;;;;;;;-146.25;94.26;52473.63;2070778;28;35491;-72
2023/02/20 03:10:52;;;;;;;11.07;7.22;;;;;;;-146.25;94.04;52418.88;2071242;28;32120;-72
2023/02/20 03:11:58;;;;;;;12.15;7.57;;;;;;;-146.25;93.59;52424.97;2072129;28;20125;-72
2023/02/20 03:13:04;;;;;;;11.77;7.35;;;;;;;-146.25;93.68;52416.84;2063181;28;23132;-73
2023/02/20 03:16:06;;;;;;;11.07;7.10;;;;;;;-146.25;93.90;52439.16;2063747;28;20911;-71
2023/02/20 03:17:28;;;;;;;9.45;7.13;;;;;;;-146.25;93.34;52386.44;2063497;28;20050;-72
2023/02/20 03:18:38;;;;;;;11.88;8.18;;;;;;;-146.25;93.27;52412.81;2062938;28;20046;-72
2023/02/20 03:19:51;;;;;;;13.07;8.30;;;;;;;-146.25;93.64;52441.19;2063050;28;33575;-72
2023/02/20 03:21:05;;;;;;;11.32;8.38;;;;;;;-146.25;93.98;52457.41;2063156;28;32013;-72
2023/02/20 03:22:28;;;;;;;10.18;7.28;;;;;;;-146.25;93.95;52422.94;2071461;28;21107;-72
2023/02/20 03:23:37;;;;;;;11.90;7.47;;;;;;;-146.25;93.78;52408.75;2067686;28;20039;-73
2023/02/20 03:25:16;;;;;;;11.75;8.02;;;;;;;-146.25;93.66;52408.75;2071070;28;33725;-72
2023/02/20 03:26:21;;;;;;;12.23;8.02;;;;;;;-146.25;94.08;52439.16;2057291;28;20813;-72
2023/02/20 03:27:57;;;;;;;11.95;7.85;;;;;;;-146.25;94.21;52449.31;2064759;28;20702;-72
2023/02/20 03:29:13;;;;;;;13.13;8.30;;;;;;;-146.25;93.79;52435.09;2060285;28;36511;-72
2023/02/20 03:30:20;;;;;;;12.25;7.82;;;;;;;-146.25;94.10;52420.91;2063257;28;20035;-73
2023/02/20 03:31:49;;;;;;;11.15;8.05;;;;;;;-146.25;94.00;52457.41;2063262;28;21506;-72
2023/02/20 03:43:23;;;;;;;14.35;8.32;;;;;;;-146.25;93.75;52459.44;2056797;28;20106;-72
2023/02/20 03:44:31;;;;;;;12.13;8.18;;;;;;;-146.25;93.95;52420.91;2066737;28;20046;-72
2023/02/20 03:45:38;;;;;;;12.77;8.70;;;;;;;-146.25;93.93;52437.13;2067386;28;20999;-72
2023/02/20 03:46:44;;;;;;;15.85;9.40;;;;;;;-146.25;94.35;52455.38;2071095;28;20160;-72
2023/02/20 03:47:58;;;;;;;16.58;8.55;;;;;;;-146.25;94.56;52453.34;2061982;28;20959;-72
2023/02/20 03:49:11;;;;;;;16.00;8.77;;;;;;;-146.25;94.47;52424.97;2056688;28;20059;-72
2023/02/20 03:51:56;;;;;;;15.07;8.10;;;;;;;-146.25;94.23;52459.44;2062098;28;20145;-72
2023/02/20 03:53:09;;;;;;;14.80;8.68;;;;;;;-146.25;94.56;52418.88;2071457;28;20168;-72
2023/02/20 03:54:11;;;;;;;12.63;8.63;;;;;;;-146.25;94.51;52414.84;2066892;28;21114;-72
2023/02/20 03:55:13;;;;;;;12.02;8.45;;;;;;;-146.25;94.12;52451.31;2063226;28;20129;-73
2023/02/20 03:56:27;;;;;;;15.10;8.57;;;;;;;-146.25;94.40;52424.97;2071374;28;20904;-72
2023/02/20 03:57:36;;;;;;;13.55;9.00;;;;;;;-146.25;94.91;52422.94;2069891;28;20132;-72
2023/02/20 03:58:45;;;;;;;16.40;8.60;;;;;;;-146.25;94.47;52461.47;2071018;28;20758;-72
2023/02/20 03:59:59;;;;;;;15.48;8.70;;;;;;;-146.25;94.74;52424.97;2070567;28;21298;-72
2023/02/20 04:01:06;;;;;;;13.13;8.85;;;;;;;-146.25;94.50;52495.94;2071382;28;20161;-72
2023/02/20 04:02:34;;;;;;;13.70;8.70;;;;;;;-146.25;94.72;52473.63;2070462;28;20050;-72
2023/02/20 04:03:43;;;;;;;13.43;8.48;;;;;;;-146.25;94.72;52414.84;2071613;28;20081;-72
2023/02/20 04:04:51;;;;;;;13.20;8.75;;;;;;;-146.25;94.86;52477.69;2070378;28;20054;-72
2023/02/20 04:05:57;;;;;;;15.38;8.93;;;;;;;-146.25;95.01;52429.03;2071422;28;20042;-72
2023/02/20 04:07:18;;;;;;;15.27;8.73;;;;;;;-146.25;94.86;52416.84;2069524;28;20034;-72
2023/02/20 04:08:45;;;;;;;13.32;8.43;;;;;;;-146.25;95.13;52429.03;2071306;28;20047;-72
2023/02/20 04:09:47;;;;;;;15.80;9.15;;;;;;;-146.25;95.27;52437.13;2069253;28;24154;-73
2023/02/20 04:10:58;;;;;;;14.05;8.45;;;;;;;-146.25;95.36;52461.47;2070900;28;26115;-72
2023/02/20 04:12:15;;;;;;;15.85;9.18;;;;;;;-146.25;95.28;52431.06;2071413;28;20089;-72
2023/02/20 04:13:19;;;;;;;15.80;8.95;;;;;;;-146.25;95.09;52427.00;2063502;28;20047;-72
2023/02/20 04:14:27;;;;;;;14.30;8.80;;;;;;;-146.25;95.28;52433.06;2056910;28;20046;-72
2023/02/20 04:15:32;;;;;;;17.10;8.50;;;;;;;-146.25;95.36;52414.84;2055848;28;20182;-72
2023/02/20 04:16:41;;;;;;;14.95;8.77;;;;;;;-146.25;95.60;52414.84;2064204;28;25403;-72
2023/02/20 04:17:54;;;;;;;16.35;9.10;;;;;;;-146.25;95.77;52437.13;2071695;28;20078;-72
2023/02/20 04:18:58;;;;;;;14.07;9.10;;;;;;;-146.25;95.67;52412.81;2070996;28;20038;-72
2023/02/20 04:20:00;;;;;;;13.85;8.95;;;;;;;-146.25;95.69;52445.25;2071398;28;20124;-72
2023/02/20 04:21:17;;;;;;;16.10;8.75;;;;;;;-146.25;95.82;52453.34;2071248;28;20173;-72
2023/02/20 04:22:26;;;;;;;14.82;8.77;;;;;;;-146.25;95.64;52422.94;2071287;28;20043;-72
2023/02/20 04:23:35;;;;;;;15.30;9.18;;;;;;;-146.25;95.76;52429.03;2070165;28;20845;-72
2023/02/20 04:24:47;;;;;;;17.33;9.00;;;;;;;-146.25;96.31;52447.28;2064550;28;20043;-72
2023/02/20 04:26:02;;;;;;;14.32;9.60;;;;;;;-146.25;96.29;52453.34;2071906;28;22490;-72
2023/02/20 04:27:07;;;;;;;15.65;8.95;;;;;;;-146.25;96.01;52506.06;2063099;28;20046;-72
2023/02/20 04:28:15;;;;;;;17.63;9.98;;;;;;;-146.25;96.33;52441.19;2047937;28;20882;-72
2023/02/20 04:29:28;;;;;;;13.40;9.38;;;;;;;-146.25;96.27;52418.88;2057399;28;20169;-72
2023/02/20 04:30:32;;;;;;;19.00;9.82;;;;;;;-146.25;96.07;52449.31;2063456;28;20923;-72
2023/02/20 04:31:34;;;;;;;17.25;9.43;;;;;;;-146.25;96.00;52433.06;2070779;28;20046;-72
2023/02/20 04:32:39;;;;;;;15.05;8.85;;;;;;;-146.25;96.46;52439.16;2063203;28;20079;-72
2023/02/20 04:33:41;;;;;;;14.07;9.25;;;;;;;-146.25;96.07;52441.19;2055314;28;20177;-72
2023/02/20 04:34:50;;;;;;;17.25;9.90;;;;;;;-146.25;96.12;52424.97;2063948;28;20142;-73
2023/02/20 04:35:52;;;;;;;14.00;9.18;;;;;;;-146.25;96.30;52420.91;2063164;28;20050;-72
2023/02/20 04:37:10;;;;;;;13.73;8.98;;;;;;;-146.25;96.87;52422.94;2055834;28;20099;-72
2023/02/20 04:38:13;;;;;;;17.90;9.73;;;;;;;-146.25;96.53;52435.09;2057077;28;20101;-72
2023/02/20 04:39:15;;;;;;;17.35;9.82;;;;;;;-146.25;97.16;52459.44;2063047;28;20051;-72
2023/02/20 04:40:20;;;;;;;15.85;10.00;;;;;;;-146.25;97.07;52406.72;2070943;28;20046;-72
2023/02/20 04:41:22;;;;;;;16.85;9.85;;;;;;;-146.25;96.97;52447.28;2071470;28;20186;-72
2023/02/20 04:42:24;;;;;;;18.90;10.35;;;;;;;-146.25;97.12;52477.69;2070752;28;20737;-72
2023/02/20 04:43:29;;;;;;;14.02;9.40;;;;;;;-146.25;96.88;52410.78;2063074;28;20050;-72
2023/02/20 04:44:35;;;;;;;17.30;9.57;;;;;;;-146.25;97.15;52414.84;2063201;28;20989;-72
2023/02/20 04:45:39;;;;;;;16.35;9.60;;;;;;;-146.25;97.03;52463.50;2071172;28;20038;-72
2023/02/20 04:46:41;;;;;;;16.25;9.85;;;;;;;-146.25;96.97;52396.59;2062582;28;20042;-72
2023/02/20 04:47:45;;;;;;;16.50;10.23;;;;;;;-146.25;96.99;52424.97;2055101;28;20063;-70
2023/02/20 04:48:49;;;;;;;18.10;10.43;;;;;;;-146.25;97.14;52437.13;2055243;28;21032;-72
2023/02/20 04:49:51;;;;;;;17.08;10.45;;;;;;;-146.25;96.81;52424.97;2063376;28;20881;-72
2023/02/20 04:50:56;;;;;;;15.75;9.88;;;;;;;-146.25;96.91;52431.06;2070478;28;20161;-72
2023/02/20 04:51:58;;;;;;;17.63;10.77;;;;;;;-146.25;97.25;52437.13;2063044;28;20082;-72
2023/02/20 04:53:00;;;;;;;17.42;10.80;;;;;;;-146.25;97.15;52416.84;2062656;28;20046;-72
2023/02/20 04:54:02;;;;;;;17.48;10.27;;;;;;;-146.25;97.07;52424.97;2063197;28;20445;-73
2023/02/20 04:55:05;;;;;;;19.63;10.80;;;;;;;-146.25;97.49;52443.22;2054743;28;20226;-72
2023/02/20 04:56:10;;;;;;;18.15;10.50;;;;;;;-146.25;97.79;52424.97;2062670;28;35222;-72
2023/02/20 04:57:17;;;;;;;16.73;10.15;;;;;;;-146.25;97.71;52429.03;2071082;28;20096;-73
2023/02/20 04:58:20;;;;;;;17.15;10.82;;;;;;;-146.25;97.86;52414.84;2062651;28;20059;-72
2023/02/20 04:59:26;;;;;;;18.65;10.70;;;;;;;-146.25;97.91;52453.34;2055106;28;20121;-72
2023/02/20 05:00:27;;;;;;;16.52;11.35;;;;;;;-146.25;98.30;52427.00;2063497;28;20062;-72
2023/02/20 05:01:29;;;;;;;18.05;10.25;;;;;;;-146.25;97.99;52449.31;2070510;28;34270;-72
2023/02/20 05:02:31;;;;;;;17.08;11.60;;;;;;;-146.25;97.67;52441.19;2070528;28;39754;-72
2023/02/20 05:03:33;;;;;;;19.98;11.55;;;;;;;-146.25;97.82;52431.06;2071219;28;34394;-72
2023/02/20 05:04:35;;;;;;;20.02;11.52;;;;;;;-146.25;98.06;52437.13;2070711;28;38130;-72
2023/02/20 05:05:36;;;;;;;21.67;11.73;;;;;;;-146.25;98.26;52420.91;2071108;28;33850;-72
2023/02/20 05:06:48;;;;;;;18.02;11.68;;;;;;;-146.25;98.22;52406.72;2070936;28;35918;-71
2023/02/20 05:07:57;;;;;;;20.33;11.70;;;;;;;-146.25;98.04;52412.81;2072189;28;20046;-71
2023/02/20 05:08:58;;;;;;;18.55;12.43;;;;;;;-146.25;98.01;52400.63;2071043;28;20042;-71
2023/02/20 05:10:00;;;;;;;21.23;11.82;;;;;;;-146.25;98.16;52429.03;2062174;28;40383;-72
2023/02/20 05:11:04;;;;;;;20.65;12.95;;;;;;;-146.25;98.06;52402.66;2062617;28;32779;-72
2023/02/20 05:12:06;;;;;;;23.55;13.00;;;;;;;-146.25;98.12;52441.19;2071094;28;20145;-70
2023/02/20 05:13:08;;;;;;;21.83;12.57;;;;;;;-146.25;98.42;52424.97;2070543;28;35705;-73
2023/02/20 05:14:10;;;;;;;22.67;12.93;;;;;;;-146.25;98.26;52449.31;2071625;28;20050;-73
2023/02/20 05:15:13;;;;;;;21.70;13.15;;;;;;;-146.25;98.47;52410.78;2071435;28;30879;-72
2023/02/20 05:16:15;;;;;;;22.67;13.13;;;;;;;-146.25;98.66;52431.06;2071252;28;35150;-72
2023/02/20 05:17:17;;;;;;;22.23;12.60;;;;;;;-146.25;98.41;52437.13;2071010;28;35756;-71
2023/02/20 05:18:29;;;;;;;20.85;13.55;;;;;;;-146.25;98.68;52422.94;2070875;28;38780;-71
2023/02/20 05:19:31;;;;;;;23.27;13.93;;;;;;;-146.25;98.25;52418.88;2071390;28;20057;-72
2023/02/20 05:23:13;;;;;;;23.50;14.93;;;;;;;-146.25;98.85;52473.63;2071573;28;37260;-72
2023/02/20 05:24:15;;;;;;;21.83;14.57;;;;;;;-146.25;98.71;52455.38;2070958;28;39431;-72
2023/02/20 05:25:16;;;;;;;22.45;13.93;;;;;;;-146.25;98.98;52418.88;2071978;28;20054;-71
2023/02/20 05:26:20;;;;;;;25.70;15.45;;;;;;;-146.25;98.79;52422.94;2071495;28;20059;-71
2023/02/20 05:27:24;;;;;;;21.60;14.95;;;;;;;-146.25;98.73;52410.78;2070939;28;36825;-72
2023/02/20 05:28:29;;;;;;;25.42;15.55;;;;;;;-146.25;98.45;52441.19;2070988;28;20140;-71